sensor_id;sensor_type;location;lat;lon;timestamp;pressure;altitude;pressure_sealevel;temperature;humidity
35489;BME280;21602;55.670;37.578;2022-12-20T00:00:44;100254.72;;;-2.66;90.68
35489;BME280;21602;55.670;37.578;2022-12-20T00:03:10;100266.81;;;-2.65;90.85
35489;BME280;21602;55.670;37.578;2022-12-20T00:05:36;100267.66;;;-2.64;90.75
35489;BME280;21602;55.670;37.578;2022-12-20T00:08:01;100267.41;;;-2.61;90.75
35489;BME280;21602;55.670;37.578;2022-12-20T00:10:27;100267.06;;;-2.68;90.80
35489;BME280;21602;55.670;37.578;2022-12-20T00:12:52;100276.00;;;-2.70;90.88
35489;BME280;21602;55.670;37.578;2022-12-20T00:15:19;100266.47;;;-2.71;90.96
35489;BME280;21602;55.670;37.578;2022-12-20T00:17:44;100259.09;;;-2.66;91.02
35489;BME280;21602;55.670;37.578;2022-12-20T00:20:10;100252.47;;;-2.70;90.96
35489;BME280;21602;55.670;37.578;2022-12-20T00:22:36;100260.31;;;-2.70;90.99
35489;BME280;21602;55.670;37.578;2022-12-20T00:25:02;100251.06;;;-2.74;90.87
35489;BME280;21602;55.670;37.578;2022-12-20T00:27:28;100261.44;;;-2.84;91.03
35489;BME280;21602;55.670;37.578;2022-12-20T00:29:54;100254.53;;;-2.85;91.24
35489;BME280;21602;55.670;37.578;2022-12-20T00:32:20;100244.84;;;-2.94;91.15
35489;BME280;21602;55.670;37.578;2022-12-20T00:34:45;100245.09;;;-2.97;91.23
35489;BME280;21602;55.670;37.578;2022-12-20T00:37:11;100241.06;;;-3.01;91.51
35489;BME280;21602;55.670;37.578;2022-12-20T00:39:36;100248.91;;;-3.01;91.57
35489;BME280;21602;55.670;37.578;2022-12-20T00:42:02;100238.47;;;-3.01;91.45
35489;BME280;21602;55.670;37.578;2022-12-20T00:44:27;100231.81;;;-3.05;91.61
35489;BME280;21602;55.670;37.578;2022-12-20T00:46:53;100220.31;;;-3.03;91.67
35489;BME280;21602;55.670;37.578;2022-12-20T00:49:18;100226.22;;;-3.01;91.26
35489;BME280;21602;55.670;37.578;2022-12-20T00:51:44;100230.69;;;-3.13;91.34
35489;BME280;21602;55.670;37.578;2022-12-20T00:54:09;100216.31;;;-3.18;91.24
35489;BME280;21602;55.670;37.578;2022-12-20T00:56:35;100219.56;;;-3.26;91.41
35489;BME280;21602;55.670;37.578;2022-12-20T00:59:00;100205.66;;;-3.26;91.37
35489;BME280;21602;55.670;37.578;2022-12-20T01:01:27;100207.09;;;-3.33;91.25
35489;BME280;21602;55.670;37.578;2022-12-20T01:03:55;100190.28;;;-3.41;91.75
35489;BME280;21602;55.670;37.578;2022-12-20T01:06:21;100179.75;;;-3.50;91.75
35489;BME280;21602;55.670;37.578;2022-12-20T01:08:46;100175.59;;;-3.53;92.15
35489;BME280;21602;55.670;37.578;2022-12-20T01:11:19;100207.41;;;-3.59;92.29
35489;BME280;21602;55.670;37.578;2022-12-20T01:13:46;100215.09;;;-3.57;92.24
35489;BME280;21602;55.670;37.578;2022-12-20T01:16:17;100191.97;;;-3.62;92.58
35489;BME280;21602;55.670;37.578;2022-12-20T01:18:44;100175.38;;;-3.61;92.51
35489;BME280;21602;55.670;37.578;2022-12-20T01:21:10;100190.34;;;-3.63;92.66
35489;BME280;21602;55.670;37.578;2022-12-20T01:23:36;100166.38;;;-3.68;92.79
35489;BME280;21602;55.670;37.578;2022-12-20T01:26:03;100184.78;;;-3.70;92.65
35489;BME280;21602;55.670;37.578;2022-12-20T01:28:33;100178.84;;;-3.72;93.03
35489;BME280;21602;55.670;37.578;2022-12-20T01:30:59;100167.44;;;-3.71;93.08
35489;BME280;21602;55.670;37.578;2022-12-20T01:33:25;100170.66;;;-3.67;93.01
35489;BME280;21602;55.670;37.578;2022-12-20T01:35:55;100168.03;;;-3.67;92.98
35489;BME280;21602;55.670;37.578;2022-12-20T01:38:20;100159.88;;;-3.74;93.06
35489;BME280;21602;55.670;37.578;2022-12-20T01:40:46;100168.66;;;-3.75;92.85
35489;BME280;21602;55.670;37.578;2022-12-20T01:43:12;100167.72;;;-3.74;92.86
35489;BME280;21602;55.670;37.578;2022-12-20T01:45:39;100170.22;;;-3.83;92.57
35489;BME280;21602;55.670;37.578;2022-12-20T01:48:05;100166.78;;;-3.84;92.56
35489;BME280;21602;55.670;37.578;2022-12-20T01:50:32;100164.63;;;-3.79;92.57
35489;BME280;21602;55.670;37.578;2022-12-20T01:52:58;100177.22;;;-3.84;92.30
35489;BME280;21602;55.670;37.578;2022-12-20T01:55:25;100176.72;;;-3.78;92.13
35489;BME280;21602;55.670;37.578;2022-12-20T02:00:18;100178.75;;;-3.70;91.61
35489;BME280;21602;55.670;37.578;2022-12-20T02:02:45;100174.81;;;-3.76;91.29
35489;BME280;21602;55.670;37.578;2022-12-20T02:05:12;100168.78;;;-3.76;91.42
35489;BME280;21602;55.670;37.578;2022-12-20T02:07:39;100170.09;;;-3.82;91.09
35489;BME280;21602;55.670;37.578;2022-12-20T02:10:07;100162.41;;;-3.83;91.27
35489;BME280;21602;55.670;37.578;2022-12-20T02:17:51;100163.22;;;-3.94;91.00
35489;BME280;21602;55.670;37.578;2022-12-20T02:23:34;100156.13;;;-3.92;90.73
35489;BME280;21602;55.670;37.578;2022-12-20T02:25:51;100154.56;;;-3.95;90.59
35489;BME280;21602;55.670;37.578;2022-12-20T02:31:10;100143.19;;;-4.05;90.29
35489;BME280;21602;55.670;37.578;2022-12-20T02:33:38;100145.94;;;-4.06;90.38
35489;BME280;21602;55.670;37.578;2022-12-20T02:36:03;100136.22;;;-4.16;90.45
35489;BME280;21602;55.670;37.578;2022-12-20T02:38:30;100122.72;;;-4.21;90.66
35489;BME280;21602;55.670;37.578;2022-12-20T02:43:42;100124.03;;;-4.26;90.08
35489;BME280;21602;55.670;37.578;2022-12-20T02:46:27;100122.75;;;-4.32;89.65
35489;BME280;21602;55.670;37.578;2022-12-20T02:48:57;100106.38;;;-4.34;89.62
35489;BME280;21602;55.670;37.578;2022-12-20T02:51:25;100113.59;;;-4.38;88.95
35489;BME280;21602;55.670;37.578;2022-12-20T02:53:54;100102.59;;;-4.41;88.77
35489;BME280;21602;55.670;37.578;2022-12-20T03:01:49;100106.16;;;-4.65;87.29
35489;BME280;21602;55.670;37.578;2022-12-20T03:04:16;100102.94;;;-4.57;87.86
35489;BME280;21602;55.670;37.578;2022-12-20T03:07:02;100095.03;;;-4.55;87.44
35489;BME280;21602;55.670;37.578;2022-12-20T03:09:29;100093.34;;;-4.56;87.09
35489;BME280;21602;55.670;37.578;2022-12-20T03:11:55;100095.25;;;-4.58;87.24
35489;BME280;21602;55.670;37.578;2022-12-20T03:14:21;100088.84;;;-4.66;86.53
35489;BME280;21602;55.670;37.578;2022-12-20T03:16:48;100085.41;;;-4.66;87.07
35489;BME280;21602;55.670;37.578;2022-12-20T03:19:14;100066.09;;;-4.75;86.18
35489;BME280;21602;55.670;37.578;2022-12-20T03:21:40;100060.91;;;-4.86;86.00
35489;BME280;21602;55.670;37.578;2022-12-20T03:24:05;100066.09;;;-4.97;85.63
35489;BME280;21602;55.670;37.578;2022-12-20T03:26:31;100054.25;;;-5.01;84.78
35489;BME280;21602;55.670;37.578;2022-12-20T03:28:58;100049.28;;;-5.04;83.75
35489;BME280;21602;55.670;37.578;2022-12-20T03:31:26;100043.59;;;-5.09;83.06
35489;BME280;21602;55.670;37.578;2022-12-20T03:33:53;100049.97;;;-5.13;82.20
35489;BME280;21602;55.670;37.578;2022-12-20T03:36:19;100040.28;;;-5.11;82.92
35489;BME280;21602;55.670;37.578;2022-12-20T03:38:50;100048.09;;;-5.11;83.06
35489;BME280;21602;55.670;37.578;2022-12-20T03:41:15;100033.91;;;-5.07;83.13
35489;BME280;21602;55.670;37.578;2022-12-20T03:43:41;100045.84;;;-5.05;83.64
35489;BME280;21602;55.670;37.578;2022-12-20T03:46:06;100029.75;;;-5.10;82.84
35489;BME280;21602;55.670;37.578;2022-12-20T03:48:36;100037.44;;;-5.08;83.05
35489;BME280;21602;55.670;37.578;2022-12-20T03:51:03;100028.09;;;-5.11;82.60
35489;BME280;21602;55.670;37.578;2022-12-20T03:53:28;100023.59;;;-5.09;82.16
35489;BME280;21602;55.670;37.578;2022-12-20T03:55:55;100015.22;;;-5.12;81.52
35489;BME280;21602;55.670;37.578;2022-12-20T03:58:21;100011.28;;;-5.18;81.36
35489;BME280;21602;55.670;37.578;2022-12-20T04:00:47;100015.16;;;-5.24;80.84
35489;BME280;21602;55.670;37.578;2022-12-20T04:03:48;100015.53;;;-5.28;80.98
35489;BME280;21602;55.670;37.578;2022-12-20T04:06:14;100002.03;;;-5.33;80.73
35489;BME280;21602;55.670;37.578;2022-12-20T04:08:39;99994.34;;;-5.35;80.81
35489;BME280;21602;55.670;37.578;2022-12-20T04:11:06;100002.25;;;-5.36;80.64
35489;BME280;21602;55.670;37.578;2022-12-20T04:14:05;99988.31;;;-5.35;80.81
35489;BME280;21602;55.670;37.578;2022-12-20T04:16:31;99974.69;;;-5.39;80.22
35489;BME280;21602;55.670;37.578;2022-12-20T04:18:57;99977.31;;;-5.39;80.10
35489;BME280;21602;55.670;37.578;2022-12-20T04:21:33;99974.34;;;-5.34;80.51
35489;BME280;21602;55.670;37.578;2022-12-20T04:23:59;99973.06;;;-5.29;81.12
35489;BME280;21602;55.670;37.578;2022-12-20T04:26:35;99971.41;;;-5.30;80.32
35489;BME280;21602;55.670;37.578;2022-12-20T04:29:02;99977.44;;;-5.29;80.22
35489;BME280;21602;55.670;37.578;2022-12-20T04:31:29;99983.94;;;-5.35;79.33
35489;BME280;21602;55.670;37.578;2022-12-20T04:33:55;99983.13;;;-5.35;79.74
35489;BME280;21602;55.670;37.578;2022-12-20T04:36:20;99980.38;;;-5.34;79.63
35489;BME280;21602;55.670;37.578;2022-12-20T04:38:49;99978.47;;;-5.32;79.46
35489;BME280;21602;55.670;37.578;2022-12-20T04:41:15;99971.53;;;-5.31;78.73
35489;BME280;21602;55.670;37.578;2022-12-20T04:43:51;99974.47;;;-5.25;78.64
35489;BME280;21602;55.670;37.578;2022-12-20T04:46:20;99969.97;;;-5.23;78.50
35489;BME280;21602;55.670;37.578;2022-12-20T04:48:46;99971.28;;;-5.28;77.61
35489;BME280;21602;55.670;37.578;2022-12-20T04:51:11;99976.47;;;-5.28;78.09
35489;BME280;21602;55.670;37.578;2022-12-20T04:53:37;99967.03;;;-5.29;77.30
35489;BME280;21602;55.670;37.578;2022-12-20T04:56:41;99975.19;;;-5.23;77.97
35489;BME280;21602;55.670;37.578;2022-12-20T04:59:14;99971.06;;;-5.25;77.16
35489;BME280;21602;55.670;37.578;2022-12-20T05:01:42;99973.28;;;-5.32;77.05
35489;BME280;21602;55.670;37.578;2022-12-20T05:04:09;99956.72;;;-5.42;76.67
35489;BME280;21602;55.670;37.578;2022-12-20T05:06:36;99956.13;;;-5.46;76.86
35489;BME280;21602;55.670;37.578;2022-12-20T05:09:02;99963.44;;;-5.51;77.23
35489;BME280;21602;55.670;37.578;2022-12-20T05:11:29;99969.94;;;-5.56;77.24
35489;BME280;21602;55.670;37.578;2022-12-20T05:13:56;99964.84;;;-5.69;76.82
35489;BME280;21602;55.670;37.578;2022-12-20T05:16:22;99957.81;;;-5.80;76.42
35489;BME280;21602;55.670;37.578;2022-12-20T05:18:47;99952.88;;;-5.72;77.17
35489;BME280;21602;55.670;37.578;2022-12-20T05:21:14;99955.47;;;-5.72;76.88
35489;BME280;21602;55.670;37.578;2022-12-20T05:23:58;99949.22;;;-5.69;77.22
35489;BME280;21602;55.670;37.578;2022-12-20T05:27:12;99938.09;;;-5.71;76.37
35489;BME280;21602;55.670;37.578;2022-12-20T05:29:37;99938.59;;;-5.66;76.73
35489;BME280;21602;55.670;37.578;2022-12-20T05:32:03;99945.44;;;-5.65;76.46
35489;BME280;21602;55.670;37.578;2022-12-20T05:34:31;99937.06;;;-5.57;76.65
35489;BME280;21602;55.670;37.578;2022-12-20T05:36:57;99940.88;;;-5.50;75.86
35489;BME280;21602;55.670;37.578;2022-12-20T05:39:27;99939.22;;;-5.40;76.44
35489;BME280;21602;55.670;37.578;2022-12-20T05:41:57;99922.31;;;-5.34;76.53
35489;BME280;21602;55.670;37.578;2022-12-20T05:44:24;99924.44;;;-5.28;76.84
35489;BME280;21602;55.670;37.578;2022-12-20T05:46:52;99920.50;;;-5.23;75.89
35489;BME280;21602;55.670;37.578;2022-12-20T05:49:24;99906.31;;;-5.19;74.58
35489;BME280;21602;55.670;37.578;2022-12-20T05:51:50;99908.69;;;-5.16;75.32
35489;BME280;21602;55.670;37.578;2022-12-20T05:54:23;99900.88;;;-5.16;75.04
35489;BME280;21602;55.670;37.578;2022-12-20T05:57:02;99897.19;;;-5.13;74.74
35489;BME280;21602;55.670;37.578;2022-12-20T05:59:36;99892.25;;;-5.16;74.45
35489;BME280;21602;55.670;37.578;2022-12-20T06:02:04;99896.03;;;-5.20;74.22
35489;BME280;21602;55.670;37.578;2022-12-20T06:04:31;99895.56;;;-5.25;74.25
35489;BME280;21602;55.670;37.578;2022-12-20T06:06:58;99882.91;;;-5.30;73.55
35489;BME280;21602;55.670;37.578;2022-12-20T06:09:24;99885.38;;;-5.28;73.71
35489;BME280;21602;55.670;37.578;2022-12-20T06:11:57;99885.28;;;-5.27;73.48
35489;BME280;21602;55.670;37.578;2022-12-20T06:14:23;99889.53;;;-5.26;72.98
35489;BME280;21602;55.670;37.578;2022-12-20T06:16:51;99886.34;;;-5.29;72.88
35489;BME280;21602;55.670;37.578;2022-12-20T06:19:18;99887.28;;;-5.30;72.43
35489;BME280;21602;55.670;37.578;2022-12-20T06:21:45;99886.94;;;-5.37;72.06
35489;BME280;21602;55.670;37.578;2022-12-20T06:24:13;99885.28;;;-5.38;72.73
35489;BME280;21602;55.670;37.578;2022-12-20T06:26:42;99893.09;;;-5.38;72.34
35489;BME280;21602;55.670;37.578;2022-12-20T06:29:08;99886.94;;;-5.37;72.68
35489;BME280;21602;55.670;37.578;2022-12-20T06:31:48;99875.00;;;-5.39;72.78
35489;BME280;21602;55.670;37.578;2022-12-20T06:34:14;99876.31;;;-5.45;72.48
35489;BME280;21602;55.670;37.578;2022-12-20T06:36:41;99879.13;;;-5.48;72.57
35489;BME280;21602;55.670;37.578;2022-12-20T06:39:12;99873.81;;;-5.47;72.91
35489;BME280;21602;55.670;37.578;2022-12-20T06:41:46;99875.56;;;-5.47;72.46
35489;BME280;21602;55.670;37.578;2022-12-20T06:44:14;99871.19;;;-5.47;72.31
35489;BME280;21602;55.670;37.578;2022-12-20T06:46:40;99858.91;;;-5.45;72.72
35489;BME280;21602;55.670;37.578;2022-12-20T06:49:06;99864.00;;;-5.54;72.03
35489;BME280;21602;55.670;37.578;2022-12-20T06:51:32;99848.72;;;-5.48;72.43
35489;BME280;21602;55.670;37.578;2022-12-20T06:53:58;99845.19;;;-5.47;72.34
35489;BME280;21602;55.670;37.578;2022-12-20T06:56:27;99846.84;;;-5.46;71.69
35489;BME280;21602;55.670;37.578;2022-12-20T06:58:52;99839.16;;;-5.36;71.66
35489;BME280;21602;55.670;37.578;2022-12-20T07:01:18;99834.44;;;-5.31;72.02
35489;BME280;21602;55.670;37.578;2022-12-20T07:03:44;99827.81;;;-5.35;71.50
35489;BME280;21602;55.670;37.578;2022-12-20T07:06:09;99819.41;;;-5.38;70.81
35489;BME280;21602;55.670;37.578;2022-12-20T07:08:35;99820.22;;;-5.38;71.02
35489;BME280;21602;55.670;37.578;2022-12-20T07:11:04;99817.75;;;-5.39;71.03
35489;BME280;21602;55.670;37.578;2022-12-20T07:13:30;99804.28;;;-5.45;70.50
35489;BME280;21602;55.670;37.578;2022-12-20T07:16:02;99796.47;;;-5.45;70.84
35489;BME280;21602;55.670;37.578;2022-12-20T07:18:28;99795.97;;;-5.38;71.10
35489;BME280;21602;55.670;37.578;2022-12-20T07:20:57;99790.28;;;-5.32;70.66
35489;BME280;21602;55.670;37.578;2022-12-20T07:23:23;99788.72;;;-5.24;70.71
35489;BME280;21602;55.670;37.578;2022-12-20T07:25:55;99784.34;;;-5.23;70.21
35489;BME280;21602;55.670;37.578;2022-12-20T07:28:21;99781.28;;;-5.17;70.64
35489;BME280;21602;55.670;37.578;2022-12-20T07:30:47;99775.81;;;-5.14;70.31
35489;BME280;21602;55.670;37.578;2022-12-20T07:33:12;99771.66;;;-5.05;70.54
35489;BME280;21602;55.670;37.578;2022-12-20T07:35:38;99764.06;;;-4.97;70.23
35489;BME280;21602;55.670;37.578;2022-12-20T07:38:04;99749.72;;;-4.92;70.28
35489;BME280;21602;55.670;37.578;2022-12-20T07:40:30;99746.50;;;-4.84;70.14
35489;BME280;21602;55.670;37.578;2022-12-20T07:42:56;99744.19;;;-4.77;69.99
35489;BME280;21602;55.670;37.578;2022-12-20T07:45:22;99740.06;;;-4.80;69.39
35489;BME280;21602;55.670;37.578;2022-12-20T07:47:48;99734.03;;;-4.80;68.92
35489;BME280;21602;55.670;37.578;2022-12-20T07:50:14;99721.28;;;-4.83;68.57
35489;BME280;21602;55.670;37.578;2022-12-20T07:52:40;99724.19;;;-4.77;68.89
35489;BME280;21602;55.670;37.578;2022-12-20T07:55:07;99710.97;;;-4.85;68.46
35489;BME280;21602;55.670;37.578;2022-12-20T07:57:35;99710.13;;;-4.85;68.46
35489;BME280;21602;55.670;37.578;2022-12-20T08:00:02;99694.50;;;-4.85;67.97
35489;BME280;21602;55.670;37.578;2022-12-20T08:03:19;99691.91;;;-4.85;67.99
35489;BME280;21602;55.670;37.578;2022-12-20T08:05:25;99695.22;;;-4.83;67.80
35489;BME280;21602;55.670;37.578;2022-12-20T08:07:51;99677.94;;;-4.84;67.42
35489;BME280;21602;55.670;37.578;2022-12-20T08:10:19;99668.59;;;-4.87;67.15
35489;BME280;21602;55.670;37.578;2022-12-20T08:12:45;99673.09;;;-4.89;67.68
35489;BME280;21602;55.670;37.578;2022-12-20T08:15:12;99661.69;;;-4.98;67.37
35489;BME280;21602;55.670;37.578;2022-12-20T08:17:37;99670.81;;;-5.03;67.07
35489;BME280;21602;55.670;37.578;2022-12-20T08:20:03;99657.47;;;-5.10;67.09
35489;BME280;21602;55.670;37.578;2022-12-20T08:22:31;99657.28;;;-5.18;67.16
35489;BME280;21602;55.670;37.578;2022-12-20T08:24:57;99660.25;;;-5.23;67.67
35489;BME280;21602;55.670;37.578;2022-12-20T08:27:26;99660.16;;;-5.21;67.66
35489;BME280;21602;55.670;37.578;2022-12-20T08:29:51;99658.28;;;-5.30;67.49
35489;BME280;21602;55.670;37.578;2022-12-20T08:32:17;99654.97;;;-5.32;67.42
35489;BME280;21602;55.670;37.578;2022-12-20T08:34:43;99657.00;;;-5.36;67.82
35489;BME280;21602;55.670;37.578;2022-12-20T08:37:08;99645.66;;;-5.35;67.54
35489;BME280;21602;55.670;37.578;2022-12-20T08:39:34;99644.00;;;-5.36;67.67
35489;BME280;21602;55.670;37.578;2022-12-20T08:42:00;99628.03;;;-5.43;67.67
35489;BME280;21602;55.670;37.578;2022-12-20T08:44:25;99628.75;;;-5.41;67.81
35489;BME280;21602;55.670;37.578;2022-12-20T08:46:51;99626.16;;;-5.41;67.85
35489;BME280;21602;55.670;37.578;2022-12-20T08:49:18;99613.53;;;-5.45;67.50
35489;BME280;21602;55.670;37.578;2022-12-20T08:51:44;99624.16;;;-5.48;67.70
35489;BME280;21602;55.670;37.578;2022-12-20T08:54:10;99609.63;;;-5.51;68.02
35489;BME280;21602;55.670;37.578;2022-12-20T08:56:35;99612.63;;;-5.55;67.87
35489;BME280;21602;55.670;37.578;2022-12-20T08:59:02;99609.69;;;-5.62;68.42
35489;BME280;21602;55.670;37.578;2022-12-20T09:01:30;99610.84;;;-5.55;68.43
35489;BME280;21602;55.670;37.578;2022-12-20T09:03:58;99611.31;;;-5.50;68.37
35489;BME280;21602;55.670;37.578;2022-12-20T09:06:23;99601.13;;;-5.53;68.25
35489;BME280;21602;55.670;37.578;2022-12-20T09:08:50;99591.91;;;-5.46;68.26
35489;BME280;21602;55.670;37.578;2022-12-20T09:11:19;99585.84;;;-5.46;68.82
35489;BME280;21602;55.670;37.578;2022-12-20T09:13:46;99580.25;;;-5.42;68.49
35489;BME280;21602;55.670;37.578;2022-12-20T09:16:14;99568.16;;;-5.31;68.38
35489;BME280;21602;55.670;37.578;2022-12-20T09:18:41;99574.13;;;-5.20;68.29
35489;BME280;21602;55.670;37.578;2022-12-20T09:21:07;99567.47;;;-5.12;68.21
35489;BME280;21602;55.670;37.578;2022-12-20T09:23:37;99562.50;;;-5.16;67.41
35489;BME280;21602;55.670;37.578;2022-12-20T09:26:04;99560.88;;;-5.17;67.28
35489;BME280;21602;55.670;37.578;2022-12-20T09:28:30;99559.06;;;-5.16;67.66
35489;BME280;21602;55.670;37.578;2022-12-20T09:30:59;99556.53;;;-5.06;67.75
35489;BME280;21602;55.670;37.578;2022-12-20T09:33:26;99544.25;;;-4.95;67.86
35489;BME280;21602;55.670;37.578;2022-12-20T09:35:52;99546.91;;;-4.85;67.49
35489;BME280;21602;55.670;37.578;2022-12-20T09:38:19;99543.75;;;-4.88;67.00
35489;BME280;21602;55.670;37.578;2022-12-20T09:40:49;99537.44;;;-4.86;66.93
35489;BME280;21602;55.670;37.578;2022-12-20T09:43:15;99525.66;;;-4.80;67.17
35489;BME280;21602;55.670;37.578;2022-12-20T09:45:42;99522.97;;;-4.79;66.61
35489;BME280;21602;55.670;37.578;2022-12-20T09:48:12;99517.06;;;-4.71;67.05
35489;BME280;21602;55.670;37.578;2022-12-20T09:56:03;99504.13;;;-4.92;66.96
35489;BME280;21602;55.670;37.578;2022-12-20T09:58:40;99497.00;;;-4.90;67.17
35489;BME280;21602;55.670;37.578;2022-12-20T10:01:13;99495.91;;;-4.87;67.09
35489;BME280;21602;55.670;37.578;2022-12-20T10:03:39;99483.69;;;-4.97;66.93
35489;BME280;21602;55.670;37.578;2022-12-20T10:06:12;99486.03;;;-4.94;67.45
35489;BME280;21602;55.670;37.578;2022-12-20T10:08:44;99475.91;;;-4.87;67.19
35489;BME280;21602;55.670;37.578;2022-12-20T10:16:46;99459.91;;;-4.73;66.54
35489;BME280;21602;55.670;37.578;2022-12-20T10:24:28;99440.84;;;-4.83;66.63
35489;BME280;21602;55.670;37.578;2022-12-20T10:26:54;99443.44;;;-4.83;66.62
35489;BME280;21602;55.670;37.578;2022-12-20T10:29:20;99435.22;;;-4.88;66.47
35489;BME280;21602;55.670;37.578;2022-12-20T10:31:48;99427.28;;;-4.77;66.63
35489;BME280;21602;55.670;37.578;2022-12-20T10:34:15;99430.03;;;-4.69;66.64
35489;BME280;21602;55.670;37.578;2022-12-20T10:36:40;99437.31;;;-4.63;66.57
35489;BME280;21602;55.670;37.578;2022-12-20T10:39:07;99438.16;;;-4.52;66.53
35489;BME280;21602;55.670;37.578;2022-12-20T10:51:53;99405.63;;;-4.77;66.88
35489;BME280;21602;55.670;37.578;2022-12-20T10:54:24;99406.28;;;-4.75;66.92
35489;BME280;21602;55.670;37.578;2022-12-20T10:56:54;99404.66;;;-4.67;66.74
35489;BME280;21602;55.670;37.578;2022-12-20T11:01:47;99401.50;;;-4.70;66.53
35489;BME280;21602;55.670;37.578;2022-12-20T11:04:29;99390.56;;;-4.74;66.58
35489;BME280;21602;55.670;37.578;2022-12-20T11:06:54;99393.56;;;-4.78;66.56
35489;BME280;21602;55.670;37.578;2022-12-20T11:09:26;99392.03;;;-4.81;66.71
35489;BME280;21602;55.670;37.578;2022-12-20T11:12:06;99389.16;;;-4.78;67.08
35489;BME280;21602;55.670;37.578;2022-12-20T11:14:33;99381.63;;;-4.71;67.23
35489;BME280;21602;55.670;37.578;2022-12-20T11:17:00;99384.78;;;-4.68;67.18
35489;BME280;21602;55.670;37.578;2022-12-20T11:22:19;99387.81;;;-4.53;66.98
35489;BME280;21602;55.670;37.578;2022-12-20T11:24:56;99388.63;;;-4.52;66.69
35489;BME280;21602;55.670;37.578;2022-12-20T11:30:05;99374.50;;;-4.79;66.88
35489;BME280;21602;55.670;37.578;2022-12-20T11:40:31;99371.88;;;-4.98;67.90
35489;BME280;21602;55.670;37.578;2022-12-20T11:45:36;99362.94;;;-5.05;68.27
35489;BME280;21602;55.670;37.578;2022-12-20T11:50:56;99364.97;;;-5.09;68.67
35489;BME280;21602;55.670;37.578;2022-12-20T11:56:02;99357.84;;;-5.17;69.06
35489;BME280;21602;55.670;37.578;2022-12-20T12:01:15;99364.91;;;-5.28;69.46
35489;BME280;21602;55.670;37.578;2022-12-20T12:03:44;99362.13;;;-5.36;69.74
35489;BME280;21602;55.670;37.578;2022-12-20T12:06:19;99346.97;;;-5.41;69.70
35489;BME280;21602;55.670;37.578;2022-12-20T12:12:00;99352.06;;;-5.60;70.56
35489;BME280;21602;55.670;37.578;2022-12-20T12:17:23;99352.69;;;-5.78;70.73
35489;BME280;21602;55.670;37.578;2022-12-20T12:19:50;99354.56;;;-5.80;70.99
35489;BME280;21602;55.670;37.578;2022-12-20T12:22:21;99342.91;;;-5.85;71.23
35489;BME280;21602;55.670;37.578;2022-12-20T12:24:51;99351.00;;;-5.88;71.51
35489;BME280;21602;55.670;37.578;2022-12-20T12:27:22;99349.06;;;-5.96;71.81
35489;BME280;21602;55.670;37.578;2022-12-20T12:29:49;99358.72;;;-5.98;71.60
35489;BME280;21602;55.670;37.578;2022-12-20T12:32:20;99356.66;;;-6.04;71.98
35489;BME280;21602;55.670;37.578;2022-12-20T12:34:58;99356.41;;;-6.01;72.23
35489;BME280;21602;55.670;37.578;2022-12-20T12:37:35;99357.81;;;-5.97;72.36
35489;BME280;21602;55.670;37.578;2022-12-20T12:40:54;99357.00;;;-5.98;71.93
35489;BME280;21602;55.670;37.578;2022-12-20T12:42:59;99355.22;;;-5.97;72.36
35489;BME280;21602;55.670;37.578;2022-12-20T12:45:41;99349.06;;;-5.96;72.38
35489;BME280;21602;55.670;37.578;2022-12-20T12:50:37;99349.81;;;-6.05;73.13
35489;BME280;21602;55.670;37.578;2022-12-20T12:53:17;99343.41;;;-6.01;73.04
35489;BME280;21602;55.670;37.578;2022-12-20T12:55:48;99350.56;;;-6.14;73.55
35489;BME280;21602;55.670;37.578;2022-12-20T13:03:34;99342.59;;;-6.23;73.43
35489;BME280;21602;55.670;37.578;2022-12-20T13:16:38;99340.06;;;-6.34;74.12
35489;BME280;21602;55.670;37.578;2022-12-20T13:19:19;99341.97;;;-6.36;74.38
35489;BME280;21602;55.670;37.578;2022-12-20T13:21:56;99339.25;;;-6.34;74.52
35489;BME280;21602;55.670;37.578;2022-12-20T13:24:39;99344.19;;;-6.31;74.49
35489;BME280;21602;55.670;37.578;2022-12-20T13:30:22;99331.94;;;-6.20;74.37
35489;BME280;21602;55.670;37.578;2022-12-20T13:35:29;99333.91;;;-6.12;74.33
35489;BME280;21602;55.670;37.578;2022-12-20T13:38:34;99333.06;;;-6.12;74.36
35489;BME280;21602;55.670;37.578;2022-12-20T13:40:53;99338.84;;;-6.09;74.40
35489;BME280;21602;55.670;37.578;2022-12-20T13:45:48;99336.38;;;-6.10;74.52
35489;BME280;21602;55.670;37.578;2022-12-20T13:48:16;99334.47;;;-6.08;74.38
35489;BME280;21602;55.670;37.578;2022-12-20T13:50:50;99331.38;;;-6.02;74.55
35489;BME280;21602;55.670;37.578;2022-12-20T13:53:18;99339.63;;;-5.97;74.30
35489;BME280;21602;55.670;37.578;2022-12-20T13:55:44;99331.81;;;-5.97;74.29
35489;BME280;21602;55.670;37.578;2022-12-20T13:58:12;99325.22;;;-6.01;74.38
35489;BME280;21602;55.670;37.578;2022-12-20T14:00:38;99326.66;;;-6.08;74.61
35489;BME280;21602;55.670;37.578;2022-12-20T14:03:04;99332.59;;;-6.06;74.46
35489;BME280;21602;55.670;37.578;2022-12-20T14:05:35;99331.47;;;-6.04;74.82
35489;BME280;21602;55.670;37.578;2022-12-20T14:08:02;99331.25;;;-6.01;74.65
35489;BME280;21602;55.670;37.578;2022-12-20T14:10:31;99330.16;;;-5.98;74.60
35489;BME280;21602;55.670;37.578;2022-12-20T14:13:12;99328.50;;;-5.99;74.66
35489;BME280;21602;55.670;37.578;2022-12-20T14:15:43;99323.59;;;-6.02;74.46
35489;BME280;21602;55.670;37.578;2022-12-20T14:18:19;99334.47;;;-6.08;74.73
35489;BME280;21602;55.670;37.578;2022-12-20T14:20:46;99312.28;;;-6.12;74.81
35489;BME280;21602;55.670;37.578;2022-12-20T14:23:17;99306.78;;;-6.19;75.10
35489;BME280;21602;55.670;37.578;2022-12-20T14:30:51;99306.66;;;-6.18;75.24
35489;BME280;21602;55.670;37.578;2022-12-20T14:33:26;99303.50;;;-6.21;75.80
35489;BME280;21602;55.670;37.578;2022-12-20T14:35:53;99301.44;;;-6.18;75.55
35489;BME280;21602;55.670;37.578;2022-12-20T14:38:20;99304.06;;;-6.18;75.59
35489;BME280;21602;55.670;37.578;2022-12-20T14:40:46;99296.38;;;-6.19;75.68
35489;BME280;21602;55.670;37.578;2022-12-20T14:43:13;99303.22;;;-6.18;75.47
35489;BME280;21602;55.670;37.578;2022-12-20T14:45:39;99304.06;;;-6.18;75.65
35489;BME280;21602;55.670;37.578;2022-12-20T14:48:13;99310.91;;;-6.16;75.60